createdAt,value
2022-08-26T00:00:02.531Z,986.10
2022-08-26T00:01:02.544Z,986.10
2022-08-26T00:02:02.562Z,986.10
2022-08-26T00:03:02.513Z,986.09
2022-08-26T00:04:02.524Z,986.09
2022-08-26T00:05:02.557Z,986.08
2022-08-26T00:06:02.544Z,986.07
2022-08-26T00:07:02.485Z,986.07
2022-08-26T00:08:02.481Z,986.06
2022-08-26T00:09:02.467Z,986.06
2022-08-26T00:10:03.467Z,986.05
2022-08-26T00:11:02.443Z,986.04
2022-08-26T00:12:02.462Z,986.04
2022-08-26T00:13:02.430Z,986.03
2022-08-26T00:14:02.423Z,986.02
2022-08-26T00:15:02.418Z,986.02
2022-08-26T00:16:02.416Z,986.01
2022-08-26T00:17:02.532Z,986.02
2022-08-26T00:18:02.423Z,986.01
2022-08-26T00:19:02.391Z,986.01
2022-08-26T00:20:02.384Z,986.01
2022-08-26T00:21:06.133Z,986.00
2022-08-26T00:22:02.386Z,986.00
2022-08-26T00:23:02.449Z,986.01
2022-08-26T00:24:02.352Z,986.02
2022-08-26T00:25:02.344Z,986.02
2022-08-26T00:26:02.338Z,986.03
2022-08-26T00:27:02.319Z,986.03
2022-08-26T00:28:02.318Z,986.03
2022-08-26T00:29:02.337Z,986.04
2022-08-26T00:30:02.314Z,986.04
2022-08-26T00:31:02.300Z,986.05
2022-08-26T00:32:02.376Z,986.05
2022-08-26T00:33:02.286Z,986.06
2022-08-26T00:34:02.289Z,986.06
2022-08-26T00:35:02.258Z,986.05
2022-08-26T00:36:02.261Z,986.06
2022-08-26T00:37:02.251Z,986.06
2022-08-26T00:38:02.244Z,986.05
2022-08-26T00:39:02.244Z,986.05
2022-08-26T00:40:05.232Z,986.04
2022-08-26T00:41:02.230Z,986.04
2022-08-26T00:42:02.205Z,986.04
2022-08-26T00:43:02.198Z,986.04
2022-08-26T00:44:03.258Z,986.04
2022-08-26T00:45:02.180Z,986.04
2022-08-26T00:46:03.245Z,986.05
2022-08-26T00:47:02.196Z,986.05
2022-08-26T00:48:02.174Z,986.06
2022-08-26T00:49:02.164Z,986.06
2022-08-26T00:50:02.188Z,986.05
2022-08-26T00:51:02.141Z,986.05
2022-08-26T00:52:02.122Z,986.03
2022-08-26T00:53:02.113Z,986.02
2022-08-26T00:54:02.125Z,986.01
2022-08-26T00:55:02.108Z,986.00
2022-08-26T00:56:02.087Z,986.00
2022-08-26T00:57:02.117Z,985.99
2022-08-26T00:58:02.065Z,985.99
2022-08-26T00:59:02.062Z,985.99
2022-08-26T01:00:02.057Z,985.99
2022-08-26T01:01:02.076Z,985.98
2022-08-26T01:02:02.731Z,985.98
2022-08-26T01:03:02.035Z,985.98
2022-08-26T01:04:02.021Z,985.99
2022-08-26T01:05:03.444Z,985.99
2022-08-26T01:06:02.003Z,985.98
2022-08-26T01:07:02.001Z,985.98
2022-08-26T01:08:02.020Z,985.98
2022-08-26T01:09:01.975Z,985.99
2022-08-26T01:10:02.004Z,985.98
2022-08-26T01:11:01.986Z,985.98
2022-08-26T01:12:01.965Z,985.97
2022-08-26T01:13:01.948Z,985.96
2022-08-26T01:14:01.960Z,985.94
2022-08-26T01:15:01.950Z,985.93
2022-08-26T01:16:01.987Z,985.93
2022-08-26T01:17:01.937Z,985.92
2022-08-26T01:18:01.917Z,985.92
2022-08-26T01:19:01.910Z,985.92
2022-08-26T01:20:01.900Z,985.93
2022-08-26T01:21:01.890Z,985.93
2022-08-26T01:22:01.905Z,985.93
2022-08-26T01:23:03.259Z,985.94
2022-08-26T01:24:01.870Z,985.94
2022-08-26T01:25:03.707Z,985.94
2022-08-26T01:26:01.845Z,985.94
2022-08-26T01:27:01.831Z,985.94
2022-08-26T01:28:01.860Z,985.93
2022-08-26T01:29:01.824Z,985.92
2022-08-26T01:30:01.880Z,985.92
2022-08-26T01:31:01.813Z,985.91
2022-08-26T01:32:01.819Z,985.91
2022-08-26T01:33:01.817Z,985.91
2022-08-26T01:34:01.782Z,985.90
2022-08-26T01:35:01.804Z,985.91
2022-08-26T01:36:01.767Z,985.91
2022-08-26T01:37:01.760Z,985.91
2022-08-26T01:38:01.757Z,985.91
2022-08-26T01:39:01.742Z,985.91
2022-08-26T01:40:01.802Z,985.92
2022-08-26T01:41:01.750Z,985.92
2022-08-26T01:42:03.233Z,985.93
2022-08-26T01:43:01.716Z,985.93
2022-08-26T01:44:01.713Z,985.93
2022-08-26T01:45:01.701Z,985.93
2022-08-26T01:46:01.727Z,985.93
2022-08-26T01:47:01.714Z,985.94
2022-08-26T01:48:01.687Z,985.96
2022-08-26T01:49:01.661Z,985.96
2022-08-26T01:50:01.683Z,985.96
2022-08-26T01:51:01.649Z,985.97
2022-08-26T01:52:01.661Z,985.97
2022-08-26T01:53:01.629Z,985.97
2022-08-26T01:54:01.628Z,985.96
2022-08-26T01:55:01.634Z,985.96
2022-08-26T01:56:01.615Z,985.95
2022-08-26T01:57:01.612Z,985.94
2022-08-26T01:58:01.628Z,985.94
2022-08-26T01:59:01.619Z,985.93
2022-08-26T02:00:01.586Z,985.93
2022-08-26T02:01:01.617Z,985.92
2022-08-26T02:02:01.566Z,985.92
2022-08-26T02:03:01.591Z,985.92
2022-08-26T02:04:01.564Z,985.90
2022-08-26T02:05:01.537Z,985.90
2022-08-26T02:06:01.543Z,985.89
2022-08-26T02:07:01.517Z,985.89
2022-08-26T02:08:01.512Z,985.89
2022-08-26T02:09:01.516Z,985.89
2022-08-26T02:10:01.493Z,985.89
2022-08-26T02:11:01.485Z,985.90
2022-08-26T02:12:01.483Z,985.90
2022-08-26T02:13:01.513Z,985.91
2022-08-26T02:14:01.466Z,985.91
2022-08-26T02:15:01.475Z,985.92
2022-08-26T02:16:01.487Z,985.92
2022-08-26T02:17:01.441Z,985.92
2022-08-26T02:18:01.439Z,985.93
2022-08-26T02:19:01.606Z,985.93
2022-08-26T02:20:01.434Z,985.93
2022-08-26T02:21:01.440Z,985.94
2022-08-26T02:22:01.385Z,985.94
2022-08-26T02:23:01.452Z,985.94
2022-08-26T02:24:01.372Z,985.94
2022-08-26T02:25:01.394Z,985.93
2022-08-26T02:26:01.363Z,985.92
2022-08-26T02:27:01.370Z,985.91
2022-08-26T02:28:01.364Z,985.90
2022-08-26T02:29:01.349Z,985.90
2022-08-26T02:30:01.351Z,985.90
2022-08-26T02:31:02.663Z,985.90
2022-08-26T02:32:01.310Z,985.90
2022-08-26T02:33:01.372Z,985.91
2022-08-26T02:34:01.309Z,985.92
2022-08-26T02:35:01.279Z,985.92
2022-08-26T02:36:01.277Z,985.92
2022-08-26T02:37:01.294Z,985.92
2022-08-26T02:38:01.262Z,985.92
2022-08-26T02:39:01.426Z,985.91
2022-08-26T02:40:01.270Z,985.92
2022-08-26T02:41:01.232Z,985.92
2022-08-26T02:42:01.226Z,985.92
2022-08-26T02:43:01.216Z,985.92
2022-08-26T02:44:01.201Z,985.92
2022-08-26T02:45:01.241Z,985.92
2022-08-26T02:46:02.417Z,985.93
2022-08-26T02:47:01.238Z,985.94
2022-08-26T02:48:01.178Z,985.95
2022-08-26T02:49:01.174Z,985.95
2022-08-26T02:50:01.161Z,985.96
2022-08-26T02:51:01.183Z,985.96
2022-08-26T02:52:01.849Z,985.95
2022-08-26T02:53:01.193Z,985.96
2022-08-26T02:54:01.131Z,985.96
2022-08-26T02:55:01.133Z,985.96
2022-08-26T02:56:01.112Z,985.96
2022-08-26T02:57:01.130Z,985.95
2022-08-26T02:58:01.104Z,985.95
2022-08-26T02:59:01.084Z,985.94
2022-08-26T03:00:01.147Z,985.94
2022-08-26T03:01:01.581Z,985.93
2022-08-26T03:02:01.086Z,985.93
2022-08-26T03:03:01.133Z,985.92
2022-08-26T03:04:01.051Z,985.91
2022-08-26T03:05:01.898Z,985.91
2022-08-26T03:06:01.037Z,985.90
2022-08-26T03:07:01.036Z,985.90
2022-08-26T03:08:01.017Z,985.89
2022-08-26T03:09:01.063Z,985.88
2022-08-26T03:10:01.005Z,985.87
2022-08-26T03:11:01.546Z,985.86
2022-08-26T03:12:00.995Z,985.85
2022-08-26T03:13:00.983Z,985.84
2022-08-26T03:14:01.740Z,985.83
2022-08-26T03:15:00.992Z,985.82
2022-08-26T03:16:01.004Z,985.81
2022-08-26T03:17:00.950Z,985.81
2022-08-26T03:18:00.938Z,985.80
2022-08-26T03:19:00.940Z,985.79
2022-08-26T03:20:00.982Z,985.78
2022-08-26T03:21:00.952Z,985.78
2022-08-26T03:22:00.918Z,985.78
2022-08-26T03:23:00.906Z,985.77
2022-08-26T03:24:00.896Z,985.76
2022-08-26T03:25:00.913Z,985.76
2022-08-26T03:26:00.898Z,985.76
2022-08-26T03:27:00.928Z,985.76
2022-08-26T03:28:01.869Z,985.76
2022-08-26T03:29:00.851Z,985.76
2022-08-26T03:30:00.850Z,985.75
2022-08-26T03:31:00.895Z,985.74
2022-08-26T03:32:00.859Z,985.73
2022-08-26T03:33:00.838Z,985.72
2022-08-26T03:34:00.822Z,985.71
2022-08-26T03:35:00.808Z,985.70
2022-08-26T03:36:00.884Z,985.69
2022-08-26T03:37:00.792Z,985.68
2022-08-26T03:38:00.814Z,985.67
2022-08-26T03:39:00.799Z,985.67
2022-08-26T03:40:00.847Z,985.66
2022-08-26T03:41:00.771Z,985.66
2022-08-26T03:42:00.759Z,985.65
2022-08-26T03:43:00.859Z,985.65
2022-08-26T03:44:01.835Z,985.66
2022-08-26T03:45:00.751Z,985.67
2022-08-26T03:46:00.734Z,985.67
2022-08-26T03:47:00.710Z,985.68
2022-08-26T03:48:00.711Z,985.68
2022-08-26T03:49:00.694Z,985.68
2022-08-26T03:50:00.719Z,985.67
2022-08-26T03:51:00.671Z,985.66
2022-08-26T03:52:00.680Z,985.66
2022-08-26T03:53:00.661Z,985.65
2022-08-26T03:54:00.664Z,985.64
2022-08-26T03:55:00.654Z,985.63
2022-08-26T03:56:00.667Z,985.61
2022-08-26T03:57:00.640Z,985.60
2022-08-26T03:58:00.630Z,985.59
2022-08-26T03:59:00.616Z,985.58
2022-08-26T04:00:00.610Z,985.57
2022-08-26T04:01:00.596Z,985.57
2022-08-26T04:02:00.653Z,985.57
2022-08-26T04:03:00.617Z,985.56
2022-08-26T04:04:00.937Z,985.57
2022-08-26T04:05:00.591Z,985.56
2022-08-26T04:06:00.560Z,985.55
2022-08-26T04:07:00.552Z,985.54
2022-08-26T04:08:00.575Z,985.54
2022-08-26T04:09:00.552Z,985.54
2022-08-26T04:10:00.534Z,985.54
2022-08-26T04:11:00.573Z,985.55
2022-08-26T04:12:00.546Z,985.56
2022-08-26T04:13:00.507Z,985.58
2022-08-26T04:14:00.504Z,985.59
2022-08-26T04:15:00.490Z,985.60
2022-08-26T04:16:00.650Z,985.62
2022-08-26T04:17:00.467Z,985.63
2022-08-26T04:18:00.487Z,985.65
2022-08-26T04:19:00.446Z,985.67
2022-08-26T04:20:00.493Z,985.68
2022-08-26T04:21:00.476Z,985.69
2022-08-26T04:22:00.433Z,985.69
2022-08-26T04:23:00.428Z,985.68
2022-08-26T04:24:00.462Z,985.67
2022-08-26T04:25:00.423Z,985.67
2022-08-26T04:26:00.421Z,985.66
2022-08-26T04:27:00.407Z,985.64
2022-08-26T04:28:00.393Z,985.63
2022-08-26T04:29:00.385Z,985.62
2022-08-26T04:30:00.467Z,985.60
2022-08-26T04:31:00.424Z,985.59
2022-08-26T04:32:00.357Z,985.58
2022-08-26T04:33:00.352Z,985.56
2022-08-26T04:34:00.350Z,985.54
2022-08-26T04:35:00.723Z,985.53
2022-08-26T04:36:00.342Z,985.52
2022-08-26T04:37:00.313Z,985.52
2022-08-26T04:38:00.311Z,985.52
2022-08-26T04:39:00.324Z,985.52
2022-08-26T04:40:00.409Z,985.51
2022-08-26T04:41:00.307Z,985.51
2022-08-26T04:42:00.281Z,985.51
2022-08-26T04:43:00.307Z,985.51
2022-08-26T04:44:00.264Z,985.52
2022-08-26T04:45:00.250Z,985.53
2022-08-26T04:46:00.322Z,985.55
2022-08-26T04:47:00.262Z,985.56
2022-08-26T04:48:00.233Z,985.59
2022-08-26T04:49:00.225Z,985.61
2022-08-26T04:50:00.214Z,985.63
2022-08-26T04:51:00.405Z,985.65
2022-08-26T04:52:00.210Z,985.66
2022-08-26T04:53:00.214Z,985.66
2022-08-26T04:54:00.186Z,985.65
2022-08-26T04:55:00.188Z,985.65
2022-08-26T04:56:00.157Z,985.65
2022-08-26T04:57:00.155Z,985.65
2022-08-26T04:58:00.154Z,985.64
2022-08-26T04:59:00.166Z,985.64
2022-08-26T05:00:00.161Z,985.64
2022-08-26T05:01:00.144Z,985.65
2022-08-26T05:02:00.176Z,985.65
2022-08-26T05:03:00.109Z,985.66
2022-08-26T05:04:00.172Z,985.66
2022-08-26T05:05:00.111Z,985.67
2022-08-26T05:06:00.097Z,985.68
2022-08-26T05:07:02.798Z,985.69
2022-08-26T05:08:00.077Z,985.70
2022-08-26T05:09:00.092Z,985.71
2022-08-26T05:10:00.065Z,985.72
2022-08-26T05:11:00.050Z,985.73
2022-08-26T05:12:00.052Z,985.73
2022-08-26T05:13:00.029Z,985.74
2022-08-26T05:14:02.359Z,985.74
2022-08-26T05:15:00.033Z,985.75
2022-08-26T05:16:01.415Z,985.75
2022-08-26T05:17:00.007Z,985.75
2022-08-26T05:18:00.105Z,985.76
2022-08-26T05:18:59.990Z,985.77
2022-08-26T05:19:59.978Z,985.78
2022-08-26T05:20:59.999Z,985.79
2022-08-26T05:21:59.968Z,985.80
2022-08-26T05:22:59.952Z,985.80
2022-08-26T05:23:59.994Z,985.80
2022-08-26T05:24:59.938Z,985.81
2022-08-26T05:26:00.554Z,985.81
2022-08-26T05:26:59.993Z,985.80
2022-08-26T05:27:59.900Z,985.80
2022-08-26T05:28:59.917Z,985.79
2022-08-26T05:29:59.891Z,985.79
2022-08-26T05:30:59.951Z,985.79
2022-08-26T05:31:59.900Z,985.79
2022-08-26T05:32:59.879Z,985.79
2022-08-26T05:33:59.860Z,985.79
2022-08-26T05:34:59.866Z,985.79
2022-08-26T05:35:59.858Z,985.80
2022-08-26T05:36:59.845Z,985.80
2022-08-26T05:37:59.853Z,985.80
2022-08-26T05:38:59.823Z,985.81
2022-08-26T05:39:59.898Z,985.81
2022-08-26T05:40:59.815Z,985.81
2022-08-26T05:41:59.808Z,985.81
2022-08-26T05:42:59.836Z,985.81
2022-08-26T05:43:59.945Z,985.82
2022-08-26T05:44:59.788Z,985.83
2022-08-26T05:45:59.824Z,985.83
2022-08-26T05:46:59.771Z,985.83
2022-08-26T05:47:59.791Z,985.83
2022-08-26T05:48:59.846Z,985.84
2022-08-26T05:49:59.743Z,985.84
2022-08-26T05:50:59.734Z,985.85
2022-08-26T05:51:59.717Z,985.86
2022-08-26T05:52:59.709Z,985.87
2022-08-26T05:53:59.724Z,985.88
2022-08-26T05:54:59.713Z,985.89
2022-08-26T05:55:59.684Z,985.89
2022-08-26T05:56:59.680Z,985.88
2022-08-26T05:57:59.670Z,985.87
2022-08-26T05:58:59.877Z,985.85
2022-08-26T05:59:59.656Z,985.84
2022-08-26T06:00:59.701Z,985.82
2022-08-26T06:01:59.712Z,985.80
2022-08-26T06:02:59.744Z,985.79
2022-08-26T06:04:01.299Z,985.78
2022-08-26T06:04:59.630Z,985.77
2022-08-26T06:05:59.602Z,985.76
2022-08-26T06:06:59.617Z,985.76
2022-08-26T06:07:59.584Z,985.76
2022-08-26T06:08:59.618Z,985.76
2022-08-26T06:10:28.272Z,985.76
2022-08-26T06:11:00.561Z,985.77
2022-08-26T06:11:59.582Z,985.77
2022-08-26T06:13:06.033Z,985.77
2022-08-26T06:14:03.796Z,985.78
2022-08-26T06:14:59.535Z,985.78
2022-08-26T06:15:59.609Z,985.78
2022-08-26T06:16:59.542Z,985.78
2022-08-26T06:17:59.510Z,985.78
2022-08-26T06:18:59.501Z,985.78
2022-08-26T06:19:59.560Z,985.79
2022-08-26T06:20:59.491Z,985.79
2022-08-26T06:21:59.475Z,985.79
2022-08-26T06:22:59.486Z,985.80
2022-08-26T06:23:59.475Z,985.80
2022-08-26T06:24:59.460Z,985.81
2022-08-26T06:25:59.441Z,985.81
2022-08-26T06:26:59.491Z,985.82
2022-08-26T06:27:59.418Z,985.82
2022-08-26T06:28:59.417Z,985.82
2022-08-26T06:29:59.438Z,985.81
2022-08-26T06:30:59.481Z,985.82
2022-08-26T06:31:59.420Z,985.82
2022-08-26T06:32:59.453Z,985.82
2022-08-26T06:33:59.416Z,985.82
2022-08-26T06:34:59.409Z,985.82
2022-08-26T06:35:59.367Z,985.82
2022-08-26T06:36:59.369Z,985.79
2022-08-26T06:37:59.372Z,985.78
2022-08-26T06:38:59.379Z,985.78
2022-08-26T06:39:59.403Z,985.77
2022-08-26T06:40:59.850Z,985.77
2022-08-26T06:41:59.356Z,985.77
2022-08-26T06:42:59.307Z,985.77
2022-08-26T06:43:59.300Z,985.77
2022-08-26T06:44:59.301Z,985.78
2022-08-26T06:45:59.341Z,985.78
2022-08-26T06:46:59.318Z,985.78
2022-08-26T06:47:59.274Z,985.79
2022-08-26T06:48:59.270Z,985.80
2022-08-26T06:49:59.254Z,985.80
2022-08-26T06:50:59.272Z,985.81
2022-08-26T06:51:59.237Z,985.81
2022-08-26T06:52:59.251Z,985.82
2022-08-26T06:53:59.281Z,985.83
2022-08-26T06:54:59.237Z,985.84
2022-08-26T06:55:59.214Z,985.84
2022-08-26T06:56:59.302Z,985.83
2022-08-26T06:57:59.217Z,985.82
2022-08-26T06:58:59.195Z,985.82
2022-08-26T06:59:59.184Z,985.82
2022-08-26T07:01:03.061Z,985.81
2022-08-26T07:02:00.222Z,985.81
2022-08-26T07:02:59.224Z,985.78
2022-08-26T07:03:59.152Z,985.79
2022-08-26T07:04:59.144Z,985.79
2022-08-26T07:05:59.139Z,985.79
2022-08-26T07:06:59.180Z,985.79
2022-08-26T07:07:59.123Z,985.81
2022-08-26T07:08:59.109Z,985.80
2022-08-26T07:09:59.106Z,985.79
2022-08-26T07:10:59.103Z,985.78
2022-08-26T07:11:59.111Z,985.78
2022-08-26T07:12:59.088Z,985.79
2022-08-26T07:13:59.073Z,985.79
2022-08-26T07:14:59.072Z,985.78
2022-08-26T07:16:02.972Z,985.77
2022-08-26T07:16:59.239Z,985.76
2022-08-26T07:17:59.035Z,985.76
2022-08-26T07:18:59.116Z,985.74
2022-08-26T07:19:59.029Z,985.73
2022-08-26T07:20:59.006Z,985.74
2022-08-26T07:22:00.162Z,985.75
2022-08-26T07:22:59.022Z,985.76
2022-08-26T07:24:01.301Z,985.78
2022-08-26T07:24:59.303Z,985.78
2022-08-26T07:25:58.975Z,985.79
2022-08-26T07:26:58.964Z,985.82
2022-08-26T07:27:59.021Z,985.82
2022-08-26T07:28:59.444Z,985.83
2022-08-26T07:29:59.157Z,985.80
2022-08-26T07:30:59.185Z,985.82
2022-08-26T07:32:00.038Z,985.84
2022-08-26T07:32:58.934Z,985.87
2022-08-26T07:33:58.920Z,985.85
2022-08-26T07:34:58.913Z,985.81
2022-08-26T07:35:58.886Z,985.81
2022-08-26T07:36:58.952Z,985.82
2022-08-26T07:38:00.826Z,985.82
2022-08-26T07:38:58.933Z,985.83
2022-08-26T07:39:59.733Z,985.83
2022-08-26T07:40:58.842Z,985.83
2022-08-26T07:41:58.832Z,985.85
2022-08-26T07:42:58.834Z,985.87
2022-08-26T07:43:58.812Z,985.88
2022-08-26T07:44:58.817Z,985.89
2022-08-26T07:45:58.824Z,985.90
2022-08-26T07:46:58.799Z,985.91
2022-08-26T07:47:58.794Z,985.90
2022-08-26T07:48:58.803Z,985.91
2022-08-26T07:49:58.769Z,985.91
2022-08-26T07:50:58.804Z,985.92
2022-08-26T07:51:58.763Z,985.88
2022-08-26T07:52:58.742Z,985.89
2022-08-26T07:53:58.730Z,985.89
2022-08-26T07:54:58.784Z,985.87
2022-08-26T07:55:58.733Z,985.86
2022-08-26T07:56:58.715Z,985.82
2022-08-26T07:57:58.713Z,985.82
2022-08-26T07:58:58.694Z,985.84
2022-08-26T07:59:58.685Z,985.85
2022-08-26T08:00:58.736Z,985.84
2022-08-26T08:01:59.056Z,985.82
2022-08-26T08:02:58.664Z,985.83
2022-08-26T08:03:58.647Z,985.84
2022-08-26T08:04:58.770Z,985.85
2022-08-26T08:05:58.667Z,985.84
2022-08-26T08:06:58.655Z,985.84
2022-08-26T08:08:26.737Z,985.84
2022-08-26T08:08:59.607Z,985.83
2022-08-26T08:09:58.616Z,985.83
2022-08-26T08:10:58.598Z,985.84
2022-08-26T08:11:58.654Z,985.84
2022-08-26T08:12:58.597Z,985.83
2022-08-26T08:13:58.573Z,985.81
2022-08-26T08:14:58.568Z,985.83
2022-08-26T08:15:58.554Z,985.81
2022-08-26T08:16:58.673Z,985.80
2022-08-26T08:18:00.699Z,985.81
2022-08-26T08:18:58.566Z,985.80
2022-08-26T08:19:58.531Z,985.80
2022-08-26T08:21:10.907Z,985.81
2022-08-26T08:21:59.559Z,985.81
2022-08-26T08:22:58.511Z,985.81
2022-08-26T08:23:58.545Z,985.81
2022-08-26T08:24:58.477Z,985.82
2022-08-26T08:25:58.556Z,985.82
2022-08-26T08:26:58.601Z,985.82
2022-08-26T08:27:58.499Z,985.82
2022-08-26T08:28:58.448Z,985.81
2022-08-26T08:29:58.448Z,985.82
2022-08-26T08:30:58.486Z,985.81
2022-08-26T08:31:58.802Z,985.81
2022-08-26T08:32:58.432Z,985.80
2022-08-26T08:33:58.417Z,985.79
2022-08-26T08:34:58.403Z,985.78
2022-08-26T08:35:58.412Z,985.78
2022-08-26T08:36:58.410Z,985.77
2022-08-26T08:37:58.384Z,985.76
2022-08-26T08:38:58.387Z,985.75
2022-08-26T08:39:58.429Z,985.74
2022-08-26T08:40:58.350Z,985.74
2022-08-26T08:41:58.630Z,985.74
2022-08-26T08:42:58.338Z,985.73
2022-08-26T08:43:58.325Z,985.73
2022-08-26T08:44:58.986Z,985.73
2022-08-26T08:45:58.309Z,985.73
2022-08-26T08:46:58.302Z,985.73
2022-08-26T08:47:58.509Z,985.71
2022-08-26T08:48:59.010Z,985.71
2022-08-26T08:49:58.283Z,985.70
2022-08-26T08:50:58.276Z,985.69
2022-08-26T08:51:58.266Z,985.69
2022-08-26T08:52:58.371Z,985.68
2022-08-26T08:53:58.969Z,985.67
2022-08-26T08:54:58.234Z,985.66
2022-08-26T08:55:58.239Z,985.65
2022-08-26T08:56:59.844Z,985.64
2022-08-26T08:58:02.275Z,985.63
2022-08-26T08:58:58.220Z,985.62
2022-08-26T08:59:58.214Z,985.62
2022-08-26T09:00:58.281Z,985.63
2022-08-26T09:01:58.254Z,985.61
2022-08-26T09:02:58.190Z,985.61
2022-08-26T09:03:58.173Z,985.59
2022-08-26T09:04:58.162Z,985.59
2022-08-26T09:05:58.153Z,985.58
2022-08-26T09:07:58.205Z,985.57
2022-08-26T09:08:58.133Z,985.56
2022-08-26T09:09:58.133Z,985.55
2022-08-26T09:10:58.111Z,985.54
2022-08-26T09:11:58.120Z,985.53
2022-08-26T09:12:58.109Z,985.52
2022-08-26T09:13:58.116Z,985.52
2022-08-26T09:14:58.096Z,985.52
2022-08-26T09:15:58.076Z,985.51
2022-08-26T09:16:58.127Z,985.50
2022-08-26T09:17:58.068Z,985.50
2022-08-26T09:18:58.083Z,985.49
2022-08-26T09:19:58.039Z,985.48
2022-08-26T09:20:58.034Z,985.45
2022-08-26T09:21:58.039Z,985.44
2022-08-26T09:22:58.017Z,985.42
2022-08-26T09:24:05.596Z,985.41
2022-08-26T09:24:58.033Z,985.40
2022-08-26T09:25:57.991Z,985.39
2022-08-26T09:26:57.996Z,985.37
2022-08-26T09:27:57.988Z,985.36
2022-08-26T09:28:57.970Z,985.36
2022-08-26T09:29:57.987Z,985.36
2022-08-26T09:30:58.465Z,985.35
2022-08-26T09:31:57.940Z,985.37
2022-08-26T09:32:57.936Z,985.35
2022-08-26T09:33:57.921Z,985.35
2022-08-26T09:34:57.922Z,985.32
2022-08-26T09:35:57.918Z,985.31
2022-08-26T09:36:57.950Z,985.28
2022-08-26T09:37:57.912Z,985.25
2022-08-26T09:38:57.892Z,985.20
2022-08-26T09:39:57.933Z,985.18
2022-08-26T09:40:59.346Z,985.15
2022-08-26T09:41:57.880Z,985.13
2022-08-26T09:42:57.878Z,985.11
2022-08-26T09:43:57.857Z,985.09
2022-08-26T09:44:57.882Z,985.07
2022-08-26T09:45:59.709Z,985.06
2022-08-26T09:46:57.840Z,985.05
2022-08-26T09:47:57.847Z,985.01
2022-08-26T09:48:58.523Z,985.00
2022-08-26T09:49:57.811Z,984.97
2022-08-26T09:50:57.808Z,984.95
2022-08-26T09:51:57.795Z,984.94
2022-08-26T09:52:57.919Z,984.93
2022-08-26T09:53:57.813Z,984.90
2022-08-26T09:54:57.766Z,984.90
2022-08-26T09:55:57.766Z,984.90
2022-08-26T09:56:57.763Z,984.88
2022-08-26T09:58:02.255Z,984.89
2022-08-26T09:58:58.775Z,984.81
2022-08-26T09:59:57.727Z,984.81
2022-08-26T10:00:57.766Z,984.79
2022-08-26T10:01:57.791Z,984.77
2022-08-26T10:02:58.159Z,984.76
2022-08-26T10:03:57.797Z,984.73
2022-08-26T10:04:57.694Z,984.71
2022-08-26T10:05:58.701Z,984.69
2022-08-26T10:06:57.735Z,984.66
2022-08-26T10:07:57.723Z,984.63
2022-08-26T10:08:57.687Z,984.60
2022-08-26T10:09:57.668Z,984.59
2022-08-26T10:10:57.646Z,984.56
2022-08-26T10:11:57.667Z,984.54
2022-08-26T10:12:57.648Z,984.49
2022-08-26T10:13:57.624Z,984.47
2022-08-26T10:14:57.618Z,984.47
2022-08-26T10:15:57.622Z,984.44
2022-08-26T10:16:57.692Z,984.41
2022-08-26T10:17:57.612Z,984.41
2022-08-26T10:19:00.149Z,984.39
2022-08-26T10:19:57.853Z,984.41
2022-08-26T10:20:57.575Z,984.40
2022-08-26T10:21:57.574Z,984.38
2022-08-26T10:22:57.559Z,984.36
2022-08-26T10:23:57.582Z,984.33
2022-08-26T10:24:57.543Z,984.32
2022-08-26T10:25:59.164Z,984.32
2022-08-26T10:26:57.547Z,984.34
2022-08-26T10:27:57.569Z,984.34
2022-08-26T10:28:57.516Z,984.34
2022-08-26T10:29:57.525Z,984.34
2022-08-26T10:30:57.549Z,984.34
2022-08-26T10:32:02.525Z,984.33
2022-08-26T10:32:58.485Z,984.32
2022-08-26T10:34:00.368Z,984.31
2022-08-26T10:34:57.491Z,984.30
2022-08-26T10:35:57.475Z,984.28
2022-08-26T10:37:13.874Z,984.26
2022-08-26T10:37:58.461Z,984.26
2022-08-26T10:38:57.442Z,984.26
2022-08-26T10:39:59.176Z,984.25
2022-08-26T10:40:57.472Z,984.26
2022-08-26T10:41:57.426Z,984.27
2022-08-26T10:42:57.420Z,984.27
2022-08-26T10:43:57.414Z,984.28
2022-08-26T10:44:58.498Z,984.28
2022-08-26T10:45:57.477Z,984.28
2022-08-26T10:46:57.381Z,984.28
2022-08-26T10:47:57.385Z,984.26
2022-08-26T10:48:57.385Z,984.24
2022-08-26T10:50:02.861Z,984.23
2022-08-26T10:50:58.381Z,984.22
2022-08-26T10:51:57.356Z,984.21
2022-08-26T10:52:57.333Z,984.20
2022-08-26T10:53:57.400Z,984.21
2022-08-26T10:54:57.321Z,984.21
2022-08-26T10:55:57.342Z,984.21
2022-08-26T10:56:57.302Z,984.21
2022-08-26T10:57:57.367Z,984.20
2022-08-26T10:58:57.304Z,984.20
2022-08-26T10:59:57.280Z,984.21
2022-08-26T11:00:57.356Z,984.20
2022-08-26T11:01:57.304Z,984.19
2022-08-26T11:02:57.250Z,984.20
2022-08-26T11:03:58.120Z,984.22
2022-08-26T11:04:57.252Z,984.23
2022-08-26T11:05:57.241Z,984.24
2022-08-26T11:06:57.230Z,984.26
2022-08-26T11:07:57.242Z,984.26
2022-08-26T11:08:57.219Z,984.26
2022-08-26T11:09:57.206Z,984.26
2022-08-26T11:10:58.948Z,984.25
2022-08-26T11:11:57.202Z,984.24
2022-08-26T11:12:57.204Z,984.24
2022-08-26T11:13:57.189Z,984.23
2022-08-26T11:14:59.038Z,984.23
2022-08-26T11:15:57.187Z,984.23
2022-08-26T11:16:57.180Z,984.23
2022-08-26T11:17:57.157Z,984.24
2022-08-26T11:18:57.139Z,984.25
2022-08-26T11:20:01.989Z,984.25
2022-08-26T11:20:58.130Z,984.26
2022-08-26T11:21:57.120Z,984.26
2022-08-26T11:22:59.543Z,984.27
2022-08-26T11:23:57.126Z,984.26
2022-08-26T11:24:57.079Z,984.25
2022-08-26T11:25:57.493Z,984.25
2022-08-26T11:26:57.068Z,984.24
2022-08-26T11:27:57.069Z,984.24
2022-08-26T11:28:57.077Z,984.24
2022-08-26T11:29:57.069Z,984.24
2022-08-26T11:30:58.328Z,984.25
2022-08-26T11:31:57.241Z,984.24
2022-08-26T11:32:57.034Z,984.24
2022-08-26T11:33:57.027Z,984.25
2022-08-26T11:34:57.016Z,984.25
2022-08-26T11:35:57.029Z,984.24
2022-08-26T11:36:56.992Z,984.24
2022-08-26T11:37:57.000Z,984.23
2022-08-26T11:38:57.001Z,984.22
2022-08-26T11:39:57.481Z,984.22
2022-08-26T11:40:57.012Z,984.21
2022-08-26T11:41:57.772Z,984.20
2022-08-26T11:42:56.979Z,984.19
2022-08-26T11:43:56.952Z,984.18
2022-08-26T11:44:58.036Z,984.17
2022-08-26T11:45:57.000Z,984.16
2022-08-26T11:46:56.909Z,984.15
2022-08-26T11:47:56.924Z,984.13
2022-08-26T11:48:56.908Z,984.10
2022-08-26T11:49:56.911Z,984.09
2022-08-26T11:50:56.921Z,984.07
2022-08-26T11:51:56.889Z,984.05
2022-08-26T11:52:56.877Z,984.04
2022-08-26T11:53:56.879Z,984.03
2022-08-26T11:54:56.865Z,984.01
2022-08-26T11:55:56.849Z,983.99
2022-08-26T11:56:56.880Z,983.99
2022-08-26T11:57:56.840Z,983.98
2022-08-26T11:58:56.855Z,983.98
2022-08-26T11:59:56.830Z,983.97
2022-08-26T12:00:56.815Z,983.96
2022-08-26T12:01:56.813Z,983.95
2022-08-26T12:02:56.832Z,983.93
2022-08-26T12:03:58.466Z,983.92
2022-08-26T12:04:56.801Z,983.90
2022-08-26T12:05:56.775Z,983.89
2022-08-26T12:06:56.787Z,983.87
2022-08-26T12:07:56.807Z,983.86
2022-08-26T12:08:56.840Z,983.86
2022-08-26T12:09:56.743Z,983.85
2022-08-26T12:10:56.748Z,983.84
2022-08-26T12:11:58.162Z,983.83
2022-08-26T12:12:56.757Z,983.81
2022-08-26T12:13:56.739Z,983.80
2022-08-26T12:14:56.841Z,983.80
2022-08-26T12:15:56.706Z,983.79
2022-08-26T12:16:56.761Z,983.79
2022-08-26T12:17:57.593Z,983.80
2022-08-26T12:18:56.686Z,983.79
2022-08-26T12:19:56.686Z,983.79
2022-08-26T12:20:57.112Z,983.80
2022-08-26T12:21:56.653Z,983.79
2022-08-26T12:22:56.714Z,983.79
2022-08-26T12:23:56.724Z,983.78
2022-08-26T12:24:56.648Z,983.76
2022-08-26T12:25:56.653Z,983.74
2022-08-26T12:26:56.617Z,983.73
2022-08-26T12:27:56.607Z,983.70
2022-08-26T12:28:57.507Z,983.70